sensor_id;sensor_type;location;lat;lon;timestamp;temperature;humidity
67379;DHT22;54262;44.642;-0.974;2023-10-19T00:00:33;18.80;99.90
67379;DHT22;54262;44.642;-0.974;2023-10-19T00:03:00;18.70;99.90
67379;DHT22;54262;44.642;-0.974;2023-10-19T00:05:29;18.70;99.90
67379;DHT22;54262;44.642;-0.974;2023-10-19T00:07:56;18.70;99.90
67379;DHT22;54262;44.642;-0.974;2023-10-19T00:10:27;18.70;99.90
67379;DHT22;54262;44.642;-0.974;2023-10-19T00:13:00;18.70;99.90
67379;DHT22;54262;44.642;-0.974;2023-10-19T00:15:36;18.70;99.90
67379;DHT22;54262;44.642;-0.974;2023-10-19T00:18:15;18.60;99.90
67379;DHT22;54262;44.642;-0.974;2023-10-19T00:20:42;18.60;99.90
67379;DHT22;54262;44.642;-0.974;2023-10-19T00:23:13;18.60;99.90
67379;DHT22;54262;44.642;-0.974;2023-10-19T00:25:41;18.60;99.90
67379;DHT22;54262;44.642;-0.974;2023-10-19T00:28:07;18.60;99.90
67379;DHT22;54262;44.642;-0.974;2023-10-19T00:30:33;18.60;99.90
67379;DHT22;54262;44.642;-0.974;2023-10-19T00:33:04;18.60;99.90
67379;DHT22;54262;44.642;-0.974;2023-10-19T00:35:33;18.60;99.90
67379;DHT22;54262;44.642;-0.974;2023-10-19T00:38:07;18.60;99.90
67379;DHT22;54262;44.642;-0.974;2023-10-19T00:40:52;18.60;99.90
67379;DHT22;54262;44.642;-0.974;2023-10-19T00:43:32;18.60;99.90
67379;DHT22;54262;44.642;-0.974;2023-10-19T00:46:05;18.50;99.90
67379;DHT22;54262;44.642;-0.974;2023-10-19T00:49:00;18.50;99.90
67379;DHT22;54262;44.642;-0.974;2023-10-19T00:51:33;18.50;99.90
67379;DHT22;54262;44.642;-0.974;2023-10-19T00:54:05;18.50;99.90
67379;DHT22;54262;44.642;-0.974;2023-10-19T00:56:36;18.50;99.90
67379;DHT22;54262;44.642;-0.974;2023-10-19T00:59:03;18.50;99.90
67379;DHT22;54262;44.642;-0.974;2023-10-19T01:01:50;18.50;99.90
67379;DHT22;54262;44.642;-0.974;2023-10-19T01:04:19;18.40;99.90
67379;DHT22;54262;44.642;-0.974;2023-10-19T01:06:57;18.50;99.90
67379;DHT22;54262;44.642;-0.974;2023-10-19T01:09:28;18.50;99.90
67379;DHT22;54262;44.642;-0.974;2023-10-19T01:12:02;18.40;99.90
67379;DHT22;54262;44.642;-0.974;2023-10-19T01:17:32;18.40;99.90
67379;DHT22;54262;44.642;-0.974;2023-10-19T01:20:07;18.40;99.90
67379;DHT22;54262;44.642;-0.974;2023-10-19T01:25:45;18.40;99.90
67379;DHT22;54262;44.642;-0.974;2023-10-19T01:28:21;18.40;99.90
67379;DHT22;54262;44.642;-0.974;2023-10-19T01:30:51;18.40;99.90
67379;DHT22;54262;44.642;-0.974;2023-10-19T01:33:20;18.40;99.90
67379;DHT22;54262;44.642;-0.974;2023-10-19T01:35:47;18.40;99.90
67379;DHT22;54262;44.642;-0.974;2023-10-19T01:38:32;18.40;99.90
67379;DHT22;54262;44.642;-0.974;2023-10-19T01:41:02;18.40;99.90
67379;DHT22;54262;44.642;-0.974;2023-10-19T01:43:31;18.40;99.90
67379;DHT22;54262;44.642;-0.974;2023-10-19T01:45:58;18.40;99.90
67379;DHT22;54262;44.642;-0.974;2023-10-19T01:48:29;18.40;99.90
67379;DHT22;54262;44.642;-0.974;2023-10-19T01:51:04;18.40;99.90
67379;DHT22;54262;44.642;-0.974;2023-10-19T01:53:34;18.40;99.90
67379;DHT22;54262;44.642;-0.974;2023-10-19T01:56:15;18.40;99.90
67379;DHT22;54262;44.642;-0.974;2023-10-19T01:58:43;18.40;99.90
67379;DHT22;54262;44.642;-0.974;2023-10-19T02:01:09;18.40;99.90
67379;DHT22;54262;44.642;-0.974;2023-10-19T02:03:41;18.40;99.90
67379;DHT22;54262;44.642;-0.974;2023-10-19T02:06:12;18.40;99.90
67379;DHT22;54262;44.642;-0.974;2023-10-19T02:09:04;18.40;99.90
67379;DHT22;54262;44.642;-0.974;2023-10-19T02:11:39;18.40;99.90
67379;DHT22;54262;44.642;-0.974;2023-10-19T02:14:08;18.40;99.90
67379;DHT22;54262;44.642;-0.974;2023-10-19T02:16:44;18.30;99.90
67379;DHT22;54262;44.642;-0.974;2023-10-19T02:19:12;18.30;99.90
67379;DHT22;54262;44.642;-0.974;2023-10-19T02:21:38;18.30;99.90
67379;DHT22;54262;44.642;-0.974;2023-10-19T02:24:08;18.30;99.90
67379;DHT22;54262;44.642;-0.974;2023-10-19T02:26:37;18.30;99.90
67379;DHT22;54262;44.642;-0.974;2023-10-19T02:29:04;18.30;99.90
67379;DHT22;54262;44.642;-0.974;2023-10-19T02:31:43;18.30;99.90
67379;DHT22;54262;44.642;-0.974;2023-10-19T02:34:12;18.30;99.90
67379;DHT22;54262;44.642;-0.974;2023-10-19T02:36:42;18.30;99.90
67379;DHT22;54262;44.642;-0.974;2023-10-19T02:39:10;18.30;99.90
67379;DHT22;54262;44.642;-0.974;2023-10-19T02:41:41;18.30;99.90
67379;DHT22;54262;44.642;-0.974;2023-10-19T02:44:12;18.30;99.90
67379;DHT22;54262;44.642;-0.974;2023-10-19T02:46:45;18.20;99.90
67379;DHT22;54262;44.642;-0.974;2023-10-19T02:49:13;18.30;99.90
67379;DHT22;54262;44.642;-0.974;2023-10-19T02:51:41;18.30;99.90
67379;DHT22;54262;44.642;-0.974;2023-10-19T02:54:11;18.20;99.90
67379;DHT22;54262;44.642;-0.974;2023-10-19T02:56:54;18.20;99.90
67379;DHT22;54262;44.642;-0.974;2023-10-19T02:59:24;18.20;99.90
67379;DHT22;54262;44.642;-0.974;2023-10-19T03:01:51;18.20;99.90
67379;DHT22;54262;44.642;-0.974;2023-10-19T03:04:18;18.20;99.90
67379;DHT22;54262;44.642;-0.974;2023-10-19T03:06:44;18.20;99.90
67379;DHT22;54262;44.642;-0.974;2023-10-19T03:09:09;18.20;99.90
67379;DHT22;54262;44.642;-0.974;2023-10-19T03:11:48;18.20;99.90
67379;DHT22;54262;44.642;-0.974;2023-10-19T03:14:18;18.20;99.90
67379;DHT22;54262;44.642;-0.974;2023-10-19T03:16:50;18.20;99.90
67379;DHT22;54262;44.642;-0.974;2023-10-19T03:19:16;18.20;99.90
67379;DHT22;54262;44.642;-0.974;2023-10-19T03:21:41;18.10;99.90
67379;DHT22;54262;44.642;-0.974;2023-10-19T03:24:15;18.10;99.90
67379;DHT22;54262;44.642;-0.974;2023-10-19T03:26:51;18.10;99.90
67379;DHT22;54262;44.642;-0.974;2023-10-19T03:29:17;18.10;99.90
67379;DHT22;54262;44.642;-0.974;2023-10-19T03:31:56;18.10;99.90
67379;DHT22;54262;44.642;-0.974;2023-10-19T03:34:22;18.10;99.90
67379;DHT22;54262;44.642;-0.974;2023-10-19T03:36:49;18.10;99.90
67379;DHT22;54262;44.642;-0.974;2023-10-19T03:39:16;18.00;99.90
67379;DHT22;54262;44.642;-0.974;2023-10-19T03:41:44;18.00;99.90
67379;DHT22;54262;44.642;-0.974;2023-10-19T03:44:13;18.00;99.90
67379;DHT22;54262;44.642;-0.974;2023-10-19T03:46:52;18.00;99.90
67379;DHT22;54262;44.642;-0.974;2023-10-19T03:49:21;18.00;99.90
67379;DHT22;54262;44.642;-0.974;2023-10-19T03:51:48;17.90;99.90
67379;DHT22;54262;44.642;-0.974;2023-10-19T03:54:26;17.90;99.90
67379;DHT22;54262;44.642;-0.974;2023-10-19T03:56:53;17.90;99.90
67379;DHT22;54262;44.642;-0.974;2023-10-19T03:59:19;17.90;99.90
67379;DHT22;54262;44.642;-0.974;2023-10-19T04:01:48;17.90;99.90
67379;DHT22;54262;44.642;-0.974;2023-10-19T04:04:14;17.80;99.90
67379;DHT22;54262;44.642;-0.974;2023-10-19T04:06:41;17.80;99.90
67379;DHT22;54262;44.642;-0.974;2023-10-19T04:09:13;17.80;99.90
67379;DHT22;54262;44.642;-0.974;2023-10-19T04:11:42;17.80;99.90
67379;DHT22;54262;44.642;-0.974;2023-10-19T04:14:17;17.80;99.90
67379;DHT22;54262;44.642;-0.974;2023-10-19T04:16:43;17.80;99.90
67379;DHT22;54262;44.642;-0.974;2023-10-19T04:19:14;17.80;99.90
67379;DHT22;54262;44.642;-0.974;2023-10-19T04:21:43;17.70;99.90
67379;DHT22;54262;44.642;-0.974;2023-10-19T04:24:16;17.70;99.90
67379;DHT22;54262;44.642;-0.974;2023-10-19T04:26:44;17.70;99.90
67379;DHT22;54262;44.642;-0.974;2023-10-19T04:29:12;17.60;99.90
67379;DHT22;54262;44.642;-0.974;2023-10-19T04:31:42;17.60;99.90
67379;DHT22;54262;44.642;-0.974;2023-10-19T04:34:21;17.60;99.90
67379;DHT22;54262;44.642;-0.974;2023-10-19T04:36:50;17.60;99.90
67379;DHT22;54262;44.642;-0.974;2023-10-19T04:39:16;17.60;99.90
67379;DHT22;54262;44.642;-0.974;2023-10-19T04:41:47;17.60;99.90
67379;DHT22;54262;44.642;-0.974;2023-10-19T04:44:15;17.60;99.90
67379;DHT22;54262;44.642;-0.974;2023-10-19T04:46:41;17.60;99.90
67379;DHT22;54262;44.642;-0.974;2023-10-19T04:49:07;17.60;99.90
67379;DHT22;54262;44.642;-0.974;2023-10-19T04:51:34;17.50;99.90
67379;DHT22;54262;44.642;-0.974;2023-10-19T04:54:04;17.50;99.90
67379;DHT22;54262;44.642;-0.974;2023-10-19T04:56:30;17.50;99.90
67379;DHT22;54262;44.642;-0.974;2023-10-19T04:58:56;17.50;99.90
67379;DHT22;54262;44.642;-0.974;2023-10-19T05:01:22;17.50;99.90
67379;DHT22;54262;44.642;-0.974;2023-10-19T05:03:48;17.40;99.90
67379;DHT22;54262;44.642;-0.974;2023-10-19T05:06:13;17.50;99.90
67379;DHT22;54262;44.642;-0.974;2023-10-19T05:08:39;17.40;99.90
67379;DHT22;54262;44.642;-0.974;2023-10-19T05:11:05;17.40;99.90
67379;DHT22;54262;44.642;-0.974;2023-10-19T05:13:31;17.30;99.90
67379;DHT22;54262;44.642;-0.974;2023-10-19T05:16:01;17.30;99.90
67379;DHT22;54262;44.642;-0.974;2023-10-19T05:18:27;17.30;99.90
67379;DHT22;54262;44.642;-0.974;2023-10-19T05:20:55;17.30;99.90
67379;DHT22;54262;44.642;-0.974;2023-10-19T05:23:25;17.30;99.90
67379;DHT22;54262;44.642;-0.974;2023-10-19T05:25:59;17.30;99.90
67379;DHT22;54262;44.642;-0.974;2023-10-19T05:28:25;17.20;99.90
67379;DHT22;54262;44.642;-0.974;2023-10-19T05:30:54;17.20;99.90
67379;DHT22;54262;44.642;-0.974;2023-10-19T05:33:20;17.20;99.90
67379;DHT22;54262;44.642;-0.974;2023-10-19T05:35:50;17.30;99.90
67379;DHT22;54262;44.642;-0.974;2023-10-19T05:38:16;17.20;99.90
67379;DHT22;54262;44.642;-0.974;2023-10-19T05:40:45;17.20;99.90
67379;DHT22;54262;44.642;-0.974;2023-10-19T05:43:12;17.20;99.90
67379;DHT22;54262;44.642;-0.974;2023-10-19T05:45:38;17.20;99.90
67379;DHT22;54262;44.642;-0.974;2023-10-19T05:48:04;17.20;99.90
67379;DHT22;54262;44.642;-0.974;2023-10-19T05:50:33;17.20;99.90
67379;DHT22;54262;44.642;-0.974;2023-10-19T05:52:58;17.20;99.90
67379;DHT22;54262;44.642;-0.974;2023-10-19T05:55:25;17.20;99.90
67379;DHT22;54262;44.642;-0.974;2023-10-19T05:57:51;17.20;99.90
67379;DHT22;54262;44.642;-0.974;2023-10-19T06:00:17;17.20;99.90
67379;DHT22;54262;44.642;-0.974;2023-10-19T06:02:48;17.20;99.90
67379;DHT22;54262;44.642;-0.974;2023-10-19T06:05:15;17.20;99.90
67379;DHT22;54262;44.642;-0.974;2023-10-19T06:07:45;17.20;99.90
67379;DHT22;54262;44.642;-0.974;2023-10-19T06:10:30;17.20;99.90
67379;DHT22;54262;44.642;-0.974;2023-10-19T06:12:56;17.20;99.90
67379;DHT22;54262;44.642;-0.974;2023-10-19T06:15:22;17.20;99.90
67379;DHT22;54262;44.642;-0.974;2023-10-19T06:17:51;17.20;99.90
67379;DHT22;54262;44.642;-0.974;2023-10-19T06:20:18;17.20;99.90
67379;DHT22;54262;44.642;-0.974;2023-10-19T06:22:54;17.20;99.90
67379;DHT22;54262;44.642;-0.974;2023-10-19T06:25:24;17.20;99.90
67379;DHT22;54262;44.642;-0.974;2023-10-19T06:27:51;17.20;99.90
67379;DHT22;54262;44.642;-0.974;2023-10-19T06:30:18;17.20;99.90
67379;DHT22;54262;44.642;-0.974;2023-10-19T06:32:51;17.20;99.90
67379;DHT22;54262;44.642;-0.974;2023-10-19T06:35:18;17.20;99.90
67379;DHT22;54262;44.642;-0.974;2023-10-19T06:37:44;17.20;99.90
67379;DHT22;54262;44.642;-0.974;2023-10-19T06:40:10;17.20;99.90
67379;DHT22;54262;44.642;-0.974;2023-10-19T06:42:46;17.20;99.90
67379;DHT22;54262;44.642;-0.974;2023-10-19T06:45:16;17.20;99.90
67379;DHT22;54262;44.642;-0.974;2023-10-19T06:47:48;17.20;99.90
67379;DHT22;54262;44.642;-0.974;2023-10-19T06:50:16;17.20;99.90
67379;DHT22;54262;44.642;-0.974;2023-10-19T06:52:43;17.20;99.90
67379;DHT22;54262;44.642;-0.974;2023-10-19T06:55:11;17.20;99.90
67379;DHT22;54262;44.642;-0.974;2023-10-19T06:57:42;17.30;99.90
67379;DHT22;54262;44.642;-0.974;2023-10-19T07:00:12;17.30;99.90
67379;DHT22;54262;44.642;-0.974;2023-10-19T07:02:45;17.30;99.90
67379;DHT22;54262;44.642;-0.974;2023-10-19T07:05:12;17.30;99.90
67379;DHT22;54262;44.642;-0.974;2023-10-19T07:07:43;17.30;99.90
67379;DHT22;54262;44.642;-0.974;2023-10-19T07:10:11;17.30;99.90
67379;DHT22;54262;44.642;-0.974;2023-10-19T07:12:43;17.30;99.90
67379;DHT22;54262;44.642;-0.974;2023-10-19T07:15:09;17.30;99.90
67379;DHT22;54262;44.642;-0.974;2023-10-19T07:17:48;17.40;99.90
67379;DHT22;54262;44.642;-0.974;2023-10-19T07:20:15;17.40;99.90
67379;DHT22;54262;44.642;-0.974;2023-10-19T07:23:03;17.60;99.90
67379;DHT22;54262;44.642;-0.974;2023-10-19T07:25:35;17.80;99.90
67379;DHT22;54262;44.642;-0.974;2023-10-19T07:28:12;18.00;99.90
67379;DHT22;54262;44.642;-0.974;2023-10-19T07:30:41;18.20;99.90
67379;DHT22;54262;44.642;-0.974;2023-10-19T07:33:10;18.30;99.90
67379;DHT22;54262;44.642;-0.974;2023-10-19T07:35:38;18.50;99.90
67379;DHT22;54262;44.642;-0.974;2023-10-19T07:38:04;18.60;99.90
67379;DHT22;54262;44.642;-0.974;2023-10-19T07:40:33;18.70;99.90
67379;DHT22;54262;44.642;-0.974;2023-10-19T07:42:59;18.90;99.90
67379;DHT22;54262;44.642;-0.974;2023-10-19T07:45:25;18.90;99.90
67379;DHT22;54262;44.642;-0.974;2023-10-19T07:47:51;19.00;99.90
67379;DHT22;54262;44.642;-0.974;2023-10-19T07:50:17;19.20;99.90
67379;DHT22;54262;44.642;-0.974;2023-10-19T07:52:46;19.20;99.90
67379;DHT22;54262;44.642;-0.974;2023-10-19T07:55:14;19.30;99.90
67379;DHT22;54262;44.642;-0.974;2023-10-19T07:57:41;19.20;99.90
67379;DHT22;54262;44.642;-0.974;2023-10-19T08:00:07;19.30;99.90
67379;DHT22;54262;44.642;-0.974;2023-10-19T08:02:34;19.30;99.90
67379;DHT22;54262;44.642;-0.974;2023-10-19T08:05:00;19.40;99.90
67379;DHT22;54262;44.642;-0.974;2023-10-19T08:07:28;19.50;99.90
67379;DHT22;54262;44.642;-0.974;2023-10-19T08:09:57;19.60;99.90
67379;DHT22;54262;44.642;-0.974;2023-10-19T08:12:25;19.70;99.90
67379;DHT22;54262;44.642;-0.974;2023-10-19T08:14:52;19.80;99.90
67379;DHT22;54262;44.642;-0.974;2023-10-19T08:17:18;19.90;99.90
67379;DHT22;54262;44.642;-0.974;2023-10-19T08:19:44;19.80;99.90
67379;DHT22;54262;44.642;-0.974;2023-10-19T08:22:10;19.90;99.90
67379;DHT22;54262;44.642;-0.974;2023-10-19T08:24:39;19.90;99.90
67379;DHT22;54262;44.642;-0.974;2023-10-19T08:27:09;19.80;99.90
67379;DHT22;54262;44.642;-0.974;2023-10-19T08:29:37;19.70;99.90
67379;DHT22;54262;44.642;-0.974;2023-10-19T08:32:03;19.70;99.90
67379;DHT22;54262;44.642;-0.974;2023-10-19T08:34:34;19.80;99.90
67379;DHT22;54262;44.642;-0.974;2023-10-19T08:37:02;20.00;99.90
67379;DHT22;54262;44.642;-0.974;2023-10-19T08:39:28;20.10;99.90
67379;DHT22;54262;44.642;-0.974;2023-10-19T08:41:59;20.30;99.90
67379;DHT22;54262;44.642;-0.974;2023-10-19T08:44:27;20.30;99.90
67379;DHT22;54262;44.642;-0.974;2023-10-19T08:46:53;20.50;99.90
67379;DHT22;54262;44.642;-0.974;2023-10-19T08:49:19;20.60;99.90
67379;DHT22;54262;44.642;-0.974;2023-10-19T08:51:46;20.70;99.90
67379;DHT22;54262;44.642;-0.974;2023-10-19T08:54:13;20.70;99.90
67379;DHT22;54262;44.642;-0.974;2023-10-19T08:56:39;20.80;99.90
67379;DHT22;54262;44.642;-0.974;2023-10-19T08:59:13;20.80;99.90
67379;DHT22;54262;44.642;-0.974;2023-10-19T09:01:41;20.90;99.90
67379;DHT22;54262;44.642;-0.974;2023-10-19T09:04:12;21.00;99.90
67379;DHT22;54262;44.642;-0.974;2023-10-19T09:06:44;21.00;99.90
67379;DHT22;54262;44.642;-0.974;2023-10-19T09:09:12;21.10;99.90
67379;DHT22;54262;44.642;-0.974;2023-10-19T09:11:48;21.10;99.90
67379;DHT22;54262;44.642;-0.974;2023-10-19T09:14:18;21.20;99.90
67379;DHT22;54262;44.642;-0.974;2023-10-19T09:16:56;21.20;99.90
67379;DHT22;54262;44.642;-0.974;2023-10-19T09:19:45;21.30;99.90
67379;DHT22;54262;44.642;-0.974;2023-10-19T09:22:13;21.40;99.90
67379;DHT22;54262;44.642;-0.974;2023-10-19T09:24:51;21.40;99.90
67379;DHT22;54262;44.642;-0.974;2023-10-19T09:27:19;21.10;99.90
67379;DHT22;54262;44.642;-0.974;2023-10-19T09:29:46;21.00;99.90
67379;DHT22;54262;44.642;-0.974;2023-10-19T09:32:12;20.90;99.90
67379;DHT22;54262;44.642;-0.974;2023-10-19T09:34:44;20.80;99.90
67379;DHT22;54262;44.642;-0.974;2023-10-19T09:37:11;20.80;99.90
67379;DHT22;54262;44.642;-0.974;2023-10-19T09:39:37;20.70;99.90
67379;DHT22;54262;44.642;-0.974;2023-10-19T09:42:07;20.70;99.90
67379;DHT22;54262;44.642;-0.974;2023-10-19T09:44:59;20.80;99.90
67379;DHT22;54262;44.642;-0.974;2023-10-19T09:47:35;20.80;99.90
67379;DHT22;54262;44.642;-0.974;2023-10-19T09:50:04;20.90;99.90
67379;DHT22;54262;44.642;-0.974;2023-10-19T09:52:33;20.90;99.90
67379;DHT22;54262;44.642;-0.974;2023-10-19T09:55:44;21.00;99.90
67379;DHT22;54262;44.642;-0.974;2023-10-19T09:58:16;21.10;99.90
67379;DHT22;54262;44.642;-0.974;2023-10-19T10:00:47;21.20;99.90
67379;DHT22;54262;44.642;-0.974;2023-10-19T10:03:46;21.30;99.90
67379;DHT22;54262;44.642;-0.974;2023-10-19T10:06:17;21.30;99.90
67379;DHT22;54262;44.642;-0.974;2023-10-19T10:08:52;21.30;99.90
67379;DHT22;54262;44.642;-0.974;2023-10-19T10:11:26;21.40;99.90
67379;DHT22;54262;44.642;-0.974;2023-10-19T10:13:54;21.40;99.90
67379;DHT22;54262;44.642;-0.974;2023-10-19T10:16:27;21.50;99.90
67379;DHT22;54262;44.642;-0.974;2023-10-19T10:18:57;21.60;99.90
67379;DHT22;54262;44.642;-0.974;2023-10-19T10:21:26;21.60;99.90
67379;DHT22;54262;44.642;-0.974;2023-10-19T10:23:54;21.70;99.90
67379;DHT22;54262;44.642;-0.974;2023-10-19T10:26:24;21.70;99.90
67379;DHT22;54262;44.642;-0.974;2023-10-19T10:31:44;21.80;99.90
67379;DHT22;54262;44.642;-0.974;2023-10-19T10:34:10;21.80;99.90
67379;DHT22;54262;44.642;-0.974;2023-10-19T10:37:00;21.90;99.90
67379;DHT22;54262;44.642;-0.974;2023-10-19T10:39:28;22.00;99.90
67379;DHT22;54262;44.642;-0.974;2023-10-19T10:41:59;22.00;99.90
67379;DHT22;54262;44.642;-0.974;2023-10-19T10:44:51;22.00;99.90
67379;DHT22;54262;44.642;-0.974;2023-10-19T10:47:22;22.10;99.90
67379;DHT22;54262;44.642;-0.974;2023-10-19T10:52:33;22.20;99.90
67379;DHT22;54262;44.642;-0.974;2023-10-19T10:55:15;22.30;99.90
67379;DHT22;54262;44.642;-0.974;2023-10-19T10:57:42;22.30;99.90
67379;DHT22;54262;44.642;-0.974;2023-10-19T11:00:11;22.40;99.90
67379;DHT22;54262;44.642;-0.974;2023-10-19T11:02:44;22.40;99.90
67379;DHT22;54262;44.642;-0.974;2023-10-19T11:05:15;22.50;99.90
67379;DHT22;54262;44.642;-0.974;2023-10-19T11:08:02;22.50;99.90
67379;DHT22;54262;44.642;-0.974;2023-10-19T11:10:29;22.60;99.90
67379;DHT22;54262;44.642;-0.974;2023-10-19T11:13:16;22.60;99.90
67379;DHT22;54262;44.642;-0.974;2023-10-19T11:15:50;22.60;99.90
67379;DHT22;54262;44.642;-0.974;2023-10-19T11:21:05;22.60;99.90
67379;DHT22;54262;44.642;-0.974;2023-10-19T11:23:46;22.70;99.90
67379;DHT22;54262;44.642;-0.974;2023-10-19T11:26:22;22.70;99.90
67379;DHT22;54262;44.642;-0.974;2023-10-19T11:28:58;22.80;99.90
67379;DHT22;54262;44.642;-0.974;2023-10-19T11:31:24;22.80;99.90
67379;DHT22;54262;44.642;-0.974;2023-10-19T11:33:56;22.80;99.90
67379;DHT22;54262;44.642;-0.974;2023-10-19T11:36:22;22.90;99.90
67379;DHT22;54262;44.642;-0.974;2023-10-19T11:38:52;22.90;99.90
67379;DHT22;54262;44.642;-0.974;2023-10-19T11:41:18;22.90;99.90
67379;DHT22;54262;44.642;-0.974;2023-10-19T11:43:46;22.90;99.90
67379;DHT22;54262;44.642;-0.974;2023-10-19T11:46:13;23.00;99.90
67379;DHT22;54262;44.642;-0.974;2023-10-19T11:48:40;23.00;99.90
67379;DHT22;54262;44.642;-0.974;2023-10-19T11:51:14;23.00;99.90
67379;DHT22;54262;44.642;-0.974;2023-10-19T11:53:41;23.00;99.90
67379;DHT22;54262;44.642;-0.974;2023-10-19T11:56:09;23.00;99.90
67379;DHT22;54262;44.642;-0.974;2023-10-19T11:58:36;23.00;99.90
67379;DHT22;54262;44.642;-0.974;2023-10-19T12:01:03;23.00;99.90
67379;DHT22;54262;44.642;-0.974;2023-10-19T12:03:33;23.00;99.90
67379;DHT22;54262;44.642;-0.974;2023-10-19T12:06:08;23.00;99.40
67379;DHT22;54262;44.642;-0.974;2023-10-19T12:08:36;23.00;98.10
67379;DHT22;54262;44.642;-0.974;2023-10-19T12:11:03;23.00;96.80
67379;DHT22;54262;44.642;-0.974;2023-10-19T12:13:30;23.00;96.40
67379;DHT22;54262;44.642;-0.974;2023-10-19T12:15:57;23.00;95.30
67379;DHT22;54262;44.642;-0.974;2023-10-19T12:18:24;23.00;95.00
67379;DHT22;54262;44.642;-0.974;2023-10-19T12:20:52;23.10;94.30
67379;DHT22;54262;44.642;-0.974;2023-10-19T12:23:22;23.10;93.90
67379;DHT22;54262;44.642;-0.974;2023-10-19T12:25:49;23.10;93.60
67379;DHT22;54262;44.642;-0.974;2023-10-19T12:28:14;23.10;93.10
67379;DHT22;54262;44.642;-0.974;2023-10-19T12:30:42;23.10;92.90
67379;DHT22;54262;44.642;-0.974;2023-10-19T12:33:08;23.20;92.30
67379;DHT22;54262;44.642;-0.974;2023-10-19T12:35:41;23.20;92.20
67379;DHT22;54262;44.642;-0.974;2023-10-19T12:38:11;23.20;92.00
67379;DHT22;54262;44.642;-0.974;2023-10-19T12:40:49;23.20;91.40
67379;DHT22;54262;44.642;-0.974;2023-10-19T12:43:17;23.20;91.00
67379;DHT22;54262;44.642;-0.974;2023-10-19T12:45:47;23.30;90.70
67379;DHT22;54262;44.642;-0.974;2023-10-19T12:48:16;23.30;90.60
67379;DHT22;54262;44.642;-0.974;2023-10-19T12:50:42;23.20;90.30
67379;DHT22;54262;44.642;-0.974;2023-10-19T12:53:08;23.30;90.30
67379;DHT22;54262;44.642;-0.974;2023-10-19T12:55:35;23.40;90.30
67379;DHT22;54262;44.642;-0.974;2023-10-19T12:58:04;23.30;90.20
67379;DHT22;54262;44.642;-0.974;2023-10-19T13:00:36;23.40;90.00
67379;DHT22;54262;44.642;-0.974;2023-10-19T13:03:07;23.30;88.70
67379;DHT22;54262;44.642;-0.974;2023-10-19T13:05:37;23.40;88.70
67379;DHT22;54262;44.642;-0.974;2023-10-19T13:08:15;23.40;88.60
67379;DHT22;54262;44.642;-0.974;2023-10-19T13:10:46;23.40;88.50
67379;DHT22;54262;44.642;-0.974;2023-10-19T13:13:15;23.40;88.10
67379;DHT22;54262;44.642;-0.974;2023-10-19T13:15:43;23.40;87.80
67379;DHT22;54262;44.642;-0.974;2023-10-19T13:18:10;23.40;87.70
67379;DHT22;54262;44.642;-0.974;2023-10-19T13:20:37;23.40;87.60
67379;DHT22;54262;44.642;-0.974;2023-10-19T13:23:05;23.50;87.40
67379;DHT22;54262;44.642;-0.974;2023-10-19T13:25:51;23.50;87.40
67379;DHT22;54262;44.642;-0.974;2023-10-19T13:28:27;23.50;87.20
67379;DHT22;54262;44.642;-0.974;2023-10-19T13:30:55;23.50;87.00
67379;DHT22;54262;44.642;-0.974;2023-10-19T13:33:21;23.50;86.70
67379;DHT22;54262;44.642;-0.974;2023-10-19T13:35:47;23.50;86.70
67379;DHT22;54262;44.642;-0.974;2023-10-19T13:38:15;23.50;87.00
67379;DHT22;54262;44.642;-0.974;2023-10-19T13:40:41;23.50;87.20
67379;DHT22;54262;44.642;-0.974;2023-10-19T13:43:10;23.50;87.20
67379;DHT22;54262;44.642;-0.974;2023-10-19T13:45:40;23.50;87.70
67379;DHT22;54262;44.642;-0.974;2023-10-19T13:48:07;23.50;88.10
67379;DHT22;54262;44.642;-0.974;2023-10-19T13:50:35;23.50;88.10
67379;DHT22;54262;44.642;-0.974;2023-10-19T13:53:02;23.50;88.20
67379;DHT22;54262;44.642;-0.974;2023-10-19T13:55:30;23.50;88.10
67379;DHT22;54262;44.642;-0.974;2023-10-19T13:57:56;23.50;87.90
67379;DHT22;54262;44.642;-0.974;2023-10-19T14:00:23;23.50;87.20
67379;DHT22;54262;44.642;-0.974;2023-10-19T14:02:51;23.50;87.30
67379;DHT22;54262;44.642;-0.974;2023-10-19T14:05:17;23.40;87.80
67379;DHT22;54262;44.642;-0.974;2023-10-19T14:07:44;23.30;88.10
67379;DHT22;54262;44.642;-0.974;2023-10-19T14:10:12;23.30;87.70
67379;DHT22;54262;44.642;-0.974;2023-10-19T14:12:44;23.30;87.80
67379;DHT22;54262;44.642;-0.974;2023-10-19T14:15:14;23.20;88.00
67379;DHT22;54262;44.642;-0.974;2023-10-19T14:17:49;23.20;88.50
67379;DHT22;54262;44.642;-0.974;2023-10-19T14:20:16;23.20;89.20
67379;DHT22;54262;44.642;-0.974;2023-10-19T14:22:48;23.10;90.00
67379;DHT22;54262;44.642;-0.974;2023-10-19T14:25:14;23.00;90.40
67379;DHT22;54262;44.642;-0.974;2023-10-19T14:27:44;23.00;90.70
67379;DHT22;54262;44.642;-0.974;2023-10-19T14:30:14;23.00;91.10
67379;DHT22;54262;44.642;-0.974;2023-10-19T14:32:46;22.90;91.50
67379;DHT22;54262;44.642;-0.974;2023-10-19T14:35:16;22.90;92.30
67379;DHT22;54262;44.642;-0.974;2023-10-19T14:37:44;22.80;92.70
67379;DHT22;54262;44.642;-0.974;2023-10-19T14:40:15;22.70;93.50
67379;DHT22;54262;44.642;-0.974;2023-10-19T14:42:42;22.60;95.00
67379;DHT22;54262;44.642;-0.974;2023-10-19T14:45:14;22.60;96.10
67379;DHT22;54262;44.642;-0.974;2023-10-19T14:47:48;22.50;96.90
67379;DHT22;54262;44.642;-0.974;2023-10-19T14:50:15;22.60;97.10
67379;DHT22;54262;44.642;-0.974;2023-10-19T14:52:41;22.60;97.00
67379;DHT22;54262;44.642;-0.974;2023-10-19T14:55:08;22.70;96.90
67379;DHT22;54262;44.642;-0.974;2023-10-19T14:57:36;22.70;96.80
67379;DHT22;54262;44.642;-0.974;2023-10-19T15:00:06;22.70;96.90
67379;DHT22;54262;44.642;-0.974;2023-10-19T15:02:56;22.70;98.90
67379;DHT22;54262;44.642;-0.974;2023-10-19T15:05:27;22.70;97.00
67379;DHT22;54262;44.642;-0.974;2023-10-19T15:07:52;22.80;97.10
67379;DHT22;54262;44.642;-0.974;2023-10-19T15:10:23;22.80;96.90
67379;DHT22;54262;44.642;-0.974;2023-10-19T15:12:49;22.80;96.70
67379;DHT22;54262;44.642;-0.974;2023-10-19T15:15:17;22.90;96.80
67379;DHT22;54262;44.642;-0.974;2023-10-19T15:17:47;22.90;96.90
67379;DHT22;54262;44.642;-0.974;2023-10-19T15:20:14;22.90;96.80
67379;DHT22;54262;44.642;-0.974;2023-10-19T15:22:41;22.90;96.80
67379;DHT22;54262;44.642;-0.974;2023-10-19T15:25:07;22.90;96.70
67379;DHT22;54262;44.642;-0.974;2023-10-19T15:27:37;22.90;96.90
67379;DHT22;54262;44.642;-0.974;2023-10-19T15:30:04;22.90;97.00
67379;DHT22;54262;44.642;-0.974;2023-10-19T15:32:37;22.70;97.40
67379;DHT22;54262;44.642;-0.974;2023-10-19T15:35:07;22.80;97.50
67379;DHT22;54262;44.642;-0.974;2023-10-19T15:37:35;22.70;97.70
67379;DHT22;54262;44.642;-0.974;2023-10-19T15:40:02;22.70;98.00
67379;DHT22;54262;44.642;-0.974;2023-10-19T15:42:29;22.60;98.20
67379;DHT22;54262;44.642;-0.974;2023-10-19T15:44:56;22.40;98.70
67379;DHT22;54262;44.642;-0.974;2023-10-19T15:47:24;22.40;99.50